createdAt,value
2023-03-11T00:01:16.827Z,96932.81
2023-03-11T00:03:23.007Z,96937.78
2023-03-11T00:05:28.318Z,96931.97
2023-03-11T00:07:31.484Z,96935.19
2023-03-11T00:09:36.416Z,96922.97
2023-03-11T00:11:39.552Z,96930.03
2023-03-11T00:13:42.626Z,96934.34
2023-03-11T00:15:48.502Z,96931.66
2023-03-11T00:17:52.008Z,96939.50
2023-03-11T00:19:55.182Z,96941.25
2023-03-11T00:21:58.220Z,96956.47
2023-03-11T00:24:03.684Z,96948.06
2023-03-11T00:26:08.143Z,96960.28
2023-03-11T00:28:11.679Z,96962.84
2023-03-11T00:30:15.881Z,96966.56
2023-03-11T00:32:18.882Z,96955.50
2023-03-11T00:34:21.931Z,96959.09
2023-03-11T00:36:28.849Z,96964.56
2023-03-11T00:38:31.877Z,96963.66
2023-03-11T00:40:36.829Z,96969.00
2023-03-11T00:42:41.272Z,96953.00
2023-03-11T00:44:46.613Z,96960.75
2023-03-11T00:46:49.656Z,96971.28
2023-03-11T00:48:52.971Z,96990.94
2023-03-11T00:50:56.028Z,96990.16
2023-03-11T00:52:59.823Z,96994.31
2023-03-11T00:55:02.968Z,96990.16
2023-03-11T00:57:07.058Z,96994.72
2023-03-11T00:59:11.483Z,96993.16
2023-03-11T01:01:17.227Z,97001.00
2023-03-11T01:03:20.326Z,96994.19
2023-03-11T01:05:25.359Z,97010.31
2023-03-11T01:07:28.561Z,96996.69
2023-03-11T01:09:31.589Z,97026.81
2023-03-11T01:11:34.580Z,97011.31
2023-03-11T01:13:38.005Z,97025.28
2023-03-11T01:15:42.539Z,97001.84
2023-03-11T01:17:45.666Z,97021.66
2023-03-11T01:19:48.723Z,96990.03
2023-03-11T01:21:51.838Z,97010.28
2023-03-11T01:23:54.872Z,96995.25
2023-03-11T01:25:57.969Z,97006.88
2023-03-11T01:28:03.040Z,97013.72
2023-03-11T01:30:07.655Z,97023.41
2023-03-11T01:32:12.674Z,97025.69
2023-03-11T01:34:15.962Z,97024.03
2023-03-11T01:36:19.042Z,97024.41
2023-03-11T01:38:22.139Z,97034.75
2023-03-11T01:40:28.437Z,97016.53
2023-03-11T01:42:32.454Z,97039.84
2023-03-11T01:44:35.543Z,97040.03
2023-03-11T01:47:17.250Z,97047.59
2023-03-11T01:49:22.350Z,97028.03
2023-03-11T01:51:28.869Z,97040.59
2023-03-11T01:53:32.013Z,97029.50
2023-03-11T01:55:35.414Z,97042.69
2023-03-11T01:57:39.908Z,97032.69
2023-03-11T01:59:45.465Z,97019.22
2023-03-11T02:01:53.562Z,97028.97
2023-03-11T02:03:57.888Z,97021.06
2023-03-11T02:06:04.678Z,97033.06
2023-03-11T02:08:08.351Z,97033.25
2023-03-11T02:10:13.711Z,97034.88
2023-03-11T02:12:16.981Z,97047.59
2023-03-11T02:14:23.433Z,97045.69
2023-03-11T02:16:28.869Z,97049.81
2023-03-11T02:18:32.209Z,97054.97
2023-03-11T02:20:41.988Z,97066.31
2023-03-11T02:22:49.476Z,97070.81
2023-03-11T02:24:58.976Z,97070.53
2023-03-11T02:27:07.146Z,97067.69
2023-03-11T02:29:12.024Z,97068.59
2023-03-11T02:31:15.500Z,97074.13
2023-03-11T02:33:19.936Z,97072.66
2023-03-11T02:35:25.545Z,97065.09
2023-03-11T02:37:30.856Z,97056.41
2023-03-11T02:39:41.892Z,97069.41
2023-03-11T02:41:48.336Z,97061.84
2023-03-11T02:43:52.899Z,97054.28
2023-03-11T02:45:57.179Z,97045.84
2023-03-11T02:48:01.040Z,97047.88
2023-03-11T02:50:06.845Z,97045.19
2023-03-11T02:52:10.005Z,97042.88
2023-03-11T02:54:13.212Z,97053.38
2023-03-11T02:56:16.853Z,97052.56
2023-03-11T02:58:19.902Z,97068.13
2023-03-11T03:00:24.970Z,97059.63
2023-03-11T03:02:38.937Z,97072.59
2023-03-11T03:04:42.133Z,97081.53
2023-03-11T03:06:45.320Z,97074.63
2023-03-11T03:08:48.296Z,97082.44
2023-03-11T03:10:51.358Z,97080.69
2023-03-11T03:12:54.481Z,97082.44
2023-03-11T03:14:58.158Z,97078.28
2023-03-11T03:17:03.121Z,97076.81
2023-03-11T03:19:06.277Z,97074.44
2023-03-11T03:21:09.662Z,97071.84
2023-03-11T03:23:12.891Z,97080.75
2023-03-11T03:25:15.999Z,97086.16
2023-03-11T03:27:19.152Z,97088.75
2023-03-11T03:29:22.250Z,97093.16
2023-03-11T03:31:26.175Z,97088.09
2023-03-11T03:33:30.679Z,97095.56
2023-03-11T03:35:34.812Z,97101.44
2023-03-11T03:37:41.928Z,97114.00
2023-03-11T03:39:45.285Z,97105.25
2023-03-11T03:41:49.539Z,97104.91
2023-03-11T03:43:54.692Z,97108.97
2023-03-11T03:45:58.609Z,97111.28
2023-03-11T03:48:04.314Z,97112.75
2023-03-11T03:50:13.504Z,97115.16
2023-03-11T03:52:20.395Z,97114.06
2023-03-11T03:54:23.523Z,97119.03
2023-03-11T03:56:26.884Z,97118.22
2023-03-11T03:58:30.031Z,97122.72
2023-03-11T04:00:34.420Z,97132.00
2023-03-11T04:02:39.094Z,97131.09
2023-03-11T04:04:43.558Z,97138.03
2023-03-11T04:06:48.692Z,97140.03
2023-03-11T04:08:53.018Z,97142.72
2023-03-11T04:10:58.884Z,97138.94
2023-03-11T04:13:03.552Z,97138.84
2023-03-11T04:15:08.213Z,97135.34
2023-03-11T04:17:12.604Z,97139.84
2023-03-11T04:19:16.076Z,97138.09
2023-03-11T04:21:19.362Z,97150.16
2023-03-11T04:23:25.382Z,97157.81
2023-03-11T04:25:29.122Z,97157.81
2023-03-11T04:27:34.167Z,97159.38
2023-03-11T04:29:39.512Z,97165.28
2023-03-11T04:31:42.688Z,97165.19
2023-03-11T04:33:46.058Z,97166.94
2023-03-11T04:35:49.726Z,97164.91
2023-03-11T04:37:54.628Z,97158.22
2023-03-11T04:39:59.698Z,97153.78
2023-03-11T04:42:04.063Z,97156.84
2023-03-11T04:44:07.993Z,97160.00
2023-03-11T04:46:11.298Z,97160.00
2023-03-11T04:48:19.958Z,97154.94
2023-03-11T04:50:23.307Z,97149.69
2023-03-11T04:52:26.490Z,97146.44
2023-03-11T04:54:30.690Z,97150.94
2023-03-11T04:56:35.201Z,97146.78
2023-03-11T04:58:39.527Z,97153.88
2023-03-11T05:00:43.297Z,97168.63
2023-03-11T05:02:48.894Z,97166.94
2023-03-11T05:04:52.253Z,97155.03
2023-03-11T05:06:55.888Z,97160.28
2023-03-11T05:09:00.932Z,97154.66
2023-03-11T05:11:08.112Z,97154.75
2023-03-11T05:13:12.589Z,97154.84
2023-03-11T05:15:16.921Z,97152.69
2023-03-11T05:17:20.183Z,97158.03
2023-03-11T05:19:35.148Z,97161.72
2023-03-11T05:21:45.153Z,97167.16
2023-03-11T05:23:48.278Z,97177.19
2023-03-11T05:25:51.368Z,97176.56
2023-03-11T05:27:54.414Z,97173.28
2023-03-11T05:29:59.089Z,97177.69
2023-03-11T05:32:04.152Z,97187.16
2023-03-11T05:34:07.356Z,97179.66
2023-03-11T05:36:11.567Z,97187.47
2023-03-11T05:38:18.007Z,97176.34
2023-03-11T05:40:22.079Z,97176.34
2023-03-11T05:42:25.696Z,97178.19
2023-03-11T05:44:31.359Z,97174.19
2023-03-11T05:46:36.120Z,97178.53
2023-03-11T05:48:41.749Z,97183.84
2023-03-11T05:50:44.967Z,97183.84
2023-03-11T05:52:48.322Z,97176.22
2023-03-11T05:54:52.374Z,97194.31
2023-03-11T05:56:59.096Z,97197.81
2023-03-11T05:59:02.217Z,97207.28
2023-03-11T06:01:10.237Z,97220.91
2023-03-11T06:03:14.979Z,97213.88
2023-03-11T06:05:18.481Z,97217.09
2023-03-11T06:07:25.960Z,97215.25
2023-03-11T06:09:29.351Z,97222.00
2023-03-11T06:11:32.733Z,97220.16
2023-03-11T06:13:36.827Z,97215.84
2023-03-11T06:15:40.039Z,97215.91
2023-03-11T06:17:43.185Z,97217.59
2023-03-11T06:19:47.652Z,97221.91
2023-03-11T06:21:51.541Z,97221.84
2023-03-11T06:23:55.003Z,97232.97
2023-03-11T06:25:58.705Z,97231.13
2023-03-11T06:28:02.892Z,97231.56
2023-03-11T06:30:07.072Z,97229.88
2023-03-11T06:32:16.577Z,97237.53
2023-03-11T06:34:21.153Z,97242.53
2023-03-11T06:36:27.238Z,97235.34
2023-03-11T06:38:30.436Z,97243.69
2023-03-11T06:40:33.997Z,97245.25
2023-03-11T06:42:37.371Z,97236.59
2023-03-11T06:44:41.673Z,97242.59
2023-03-11T06:46:44.891Z,97249.50
2023-03-11T06:48:51.829Z,97260.38
2023-03-11T06:50:57.101Z,97268.75
2023-03-11T06:53:02.975Z,97272.75
2023-03-11T06:55:07.987Z,97270.25
2023-03-11T06:57:12.603Z,97273.41
2023-03-11T06:59:16.557Z,97277.41
2023-03-11T07:01:22.164Z,97272.81
2023-03-11T07:03:25.858Z,97272.72
2023-03-11T07:05:28.973Z,97277.53
2023-03-11T07:07:38.750Z,97280.72
2023-03-11T07:09:43.264Z,97291.94
2023-03-11T07:11:49.445Z,97293.69
2023-03-11T07:13:59.689Z,97304.66
2023-03-11T07:16:07.591Z,97305.97
2023-03-11T07:18:10.836Z,97308.13
2023-03-11T07:20:14.440Z,97313.78
2023-03-11T07:22:20.106Z,97318.59
2023-03-11T07:24:23.147Z,97323.00
2023-03-11T07:26:29.391Z,97316.75
2023-03-11T07:28:32.534Z,97319.06
2023-03-11T07:30:35.946Z,97331.63
2023-03-11T07:32:39.248Z,97328.78
2023-03-11T07:34:42.420Z,97336.34
2023-03-11T07:36:45.755Z,97335.34
2023-03-11T07:38:49.412Z,97340.59
2023-03-11T07:40:59.401Z,97334.69
2023-03-11T07:43:03.929Z,97344.84
2023-03-11T07:45:10.796Z,97340.50
2023-03-11T07:47:14.129Z,97345.41
2023-03-11T07:49:17.288Z,97350.88
2023-03-11T07:51:22.281Z,97356.44
2023-03-11T07:53:31.323Z,97356.81
2023-03-11T07:55:34.787Z,97358.84
2023-03-11T07:57:38.127Z,97365.50
2023-03-11T07:59:42.521Z,97365.63
2023-03-11T08:01:47.420Z,97369.34
2023-03-11T08:03:53.071Z,97368.56
2023-03-11T08:05:56.254Z,97368.22
2023-03-11T08:07:59.375Z,97371.94
2023-03-11T08:10:02.630Z,97387.84
2023-03-11T08:12:06.159Z,97393.31
2023-03-11T08:14:09.202Z,97405.69
2023-03-11T08:16:15.735Z,97402.16
2023-03-11T08:18:18.878Z,97400.19
2023-03-11T08:20:22.085Z,97401.88
2023-03-11T08:22:25.176Z,97411.31
2023-03-11T08:24:28.322Z,97416.84
2023-03-11T08:26:32.408Z,97414.69
2023-03-11T08:28:35.718Z,97412.59
2023-03-11T08:30:40.060Z,97414.84
2023-03-11T08:32:46.184Z,97411.97
2023-03-11T08:34:49.256Z,97426.25
2023-03-11T08:36:52.487Z,97414.25
2023-03-11T08:38:55.845Z,97423.38
2023-03-11T08:40:58.980Z,97415.84
2023-03-11T08:43:02.093Z,97432.78
2023-03-11T08:45:06.162Z,97434.88
2023-03-11T08:47:09.462Z,97446.00
2023-03-11T08:49:13.876Z,97438.41
2023-03-11T08:51:17.226Z,97450.94
2023-03-11T08:53:20.384Z,97455.94
2023-03-11T08:55:27.742Z,97452.31
2023-03-11T08:57:30.851Z,97439.75
2023-03-11T08:59:33.963Z,97435.88
2023-03-11T09:01:37.072Z,97433.31
2023-03-11T09:03:40.517Z,97432.78
2023-03-11T09:05:45.132Z,97431.44
2023-03-11T09:07:48.355Z,97437.75
2023-03-11T09:09:51.516Z,97434.94
2023-03-11T09:11:54.633Z,97427.34
2023-03-11T09:13:57.744Z,97424.03
2023-03-11T09:16:00.974Z,97416.78
2023-03-11T09:18:04.295Z,97427.25
2023-03-11T09:20:08.585Z,97425.66
2023-03-11T09:22:13.292Z,97431.06
2023-03-11T09:24:16.554Z,97420.16
2023-03-11T09:26:19.855Z,97427.53
2023-03-11T09:28:23.067Z,97439.91
2023-03-11T09:30:26.428Z,97431.06
2023-03-11T09:32:29.697Z,97430.22
2023-03-11T09:34:32.980Z,97431.13
2023-03-11T09:36:36.135Z,97433.91
2023-03-11T09:38:40.754Z,97440.16
2023-03-11T09:40:50.636Z,97442.84
2023-03-11T09:42:58.916Z,97446.69
2023-03-11T09:45:05.103Z,97450.00
2023-03-11T09:47:32.599Z,97442.00
2023-03-11T09:49:48.200Z,97439.09
2023-03-11T09:51:56.693Z,97443.19
2023-03-11T09:54:05.226Z,97446.19
2023-03-11T09:56:09.493Z,97450.19
2023-03-11T09:58:15.969Z,97451.78
2023-03-11T10:00:21.947Z,97451.34
2023-03-11T10:02:26.771Z,97457.19
2023-03-11T10:04:34.759Z,97447.75
2023-03-11T10:06:38.178Z,97443.78
2023-03-11T10:08:45.005Z,97442.00
2023-03-11T10:10:55.355Z,97429.22
2023-03-11T10:13:06.498Z,97435.84
2023-03-11T10:15:24.921Z,97428.81
2023-03-11T10:17:46.312Z,97431.13
2023-03-11T10:19:53.586Z,97444.22
2023-03-11T10:22:04.322Z,97445.56
2023-03-11T10:24:17.264Z,97452.16
2023-03-11T10:26:25.061Z,97447.78
2023-03-11T10:28:33.298Z,97450.19
2023-03-11T10:30:39.243Z,97450.84
2023-03-11T10:32:47.715Z,97456.16
2023-03-11T10:34:56.444Z,97456.06
2023-03-11T10:37:03.979Z,97461.59
2023-03-11T10:39:07.893Z,97463.75
2023-03-11T10:41:17.157Z,97465.72
2023-03-11T10:43:25.577Z,97464.25
2023-03-11T10:45:41.470Z,97454.75
2023-03-11T10:47:45.073Z,97447.19
2023-03-11T10:49:48.371Z,97451.94
2023-03-11T10:51:57.126Z,97451.72
2023-03-11T10:54:01.869Z,97455.09
2023-03-11T10:56:05.420Z,97450.22
2023-03-11T10:58:12.766Z,97447.63
2023-03-11T11:00:31.942Z,97444.13
2023-03-11T11:02:42.681Z,97444.28
2023-03-11T11:04:47.639Z,97449.31
2023-03-11T11:06:50.918Z,97453.28
2023-03-11T11:09:17.005Z,97456.56
2023-03-11T11:11:25.134Z,97460.50
2023-03-11T11:13:30.208Z,97458.94
2023-03-11T11:15:37.183Z,97457.41
2023-03-11T11:17:41.417Z,97455.56
2023-03-11T11:19:45.788Z,97463.41
2023-03-11T11:21:52.744Z,97462.06
2023-03-11T11:24:06.015Z,97455.94
2023-03-11T11:26:16.713Z,97462.19
2023-03-11T11:28:21.347Z,97452.69
2023-03-11T11:30:25.654Z,97462.16
2023-03-11T11:32:30.504Z,97455.75
2023-03-11T11:34:34.790Z,97468.19
2023-03-11T11:36:38.892Z,97452.22
2023-03-11T11:38:42.540Z,97457.09
2023-03-11T11:40:46.590Z,97454.69
2023-03-11T11:42:55.938Z,97461.94
2023-03-11T11:45:03.678Z,97461.69
2023-03-11T11:47:11.558Z,97457.78
2023-03-11T11:49:19.675Z,97456.31
2023-03-11T11:51:25.079Z,97444.91
2023-03-11T11:53:33.866Z,97448.63
2023-03-11T11:55:40.495Z,97449.38
2023-03-11T11:57:43.609Z,97449.16
2023-03-11T11:59:47.063Z,97452.09
2023-03-11T12:01:58.266Z,97445.56
2023-03-11T12:04:36.947Z,97440.25
2023-03-11T12:06:45.483Z,97429.16
2023-03-11T12:08:56.574Z,97425.94
2023-03-11T12:11:02.834Z,97433.31
2023-03-11T12:13:20.245Z,97434.03
2023-03-11T12:15:27.769Z,97431.72
2023-03-11T12:17:33.119Z,97431.22
2023-03-11T12:19:44.008Z,97427.28
2023-03-11T12:22:05.714Z,97425.50
2023-03-11T12:24:22.332Z,97420.53
2023-03-11T12:26:26.579Z,97417.22
2023-03-11T12:28:38.306Z,97414.50
2023-03-11T12:30:44.888Z,97411.50
2023-03-11T12:32:50.467Z,97407.84
2023-03-11T12:34:55.386Z,97416.13
2023-03-11T12:37:02.345Z,97426.44
2023-03-11T12:39:07.075Z,97418.47
2023-03-11T12:41:28.698Z,97427.59
2023-03-11T12:44:00.779Z,97413.25
2023-03-11T12:46:05.141Z,97420.34
2023-03-11T12:48:34.185Z,97413.94
2023-03-11T12:50:41.447Z,97414.97
2023-03-11T12:52:54.956Z,97427.47
2023-03-11T12:55:32.687Z,97427.56
2023-03-11T12:57:36.753Z,97427.69
2023-03-11T13:00:18.610Z,97431.56
2023-03-11T13:02:53.658Z,97426.28
2023-03-11T13:05:00.511Z,97421.59
2023-03-11T13:07:38.336Z,97427.69
2023-03-11T13:09:41.521Z,97421.03
2023-03-11T13:11:46.540Z,97417.94
2023-03-11T13:13:49.718Z,97415.34
2023-03-11T13:15:53.118Z,97416.09
2023-03-11T13:18:00.897Z,97411.94
2023-03-11T13:20:04.296Z,97416.47
2023-03-11T13:22:11.600Z,97410.78
2023-03-11T13:24:51.189Z,97398.06
2023-03-11T13:26:58.182Z,97395.19
2023-03-11T13:29:16.051Z,97388.13
2023-03-11T13:31:37.538Z,97395.78
2023-03-11T13:33:51.210Z,97399.13
2023-03-11T13:36:07.344Z,97410.34
2023-03-11T13:38:25.532Z,97411.38
2023-03-11T13:40:34.383Z,97415.09
2023-03-11T13:42:41.533Z,97412.94
2023-03-11T13:44:44.697Z,97413.91
2023-03-11T13:46:50.470Z,97413.22
2023-03-11T13:48:57.603Z,97401.81
2023-03-11T13:51:03.394Z,97399.03
2023-03-11T13:53:10.394Z,97397.59
2023-03-11T13:55:19.254Z,97398.31
2023-03-11T13:57:28.642Z,97397.25
2023-03-11T13:59:33.079Z,97413.66
2023-03-11T14:01:36.264Z,97406.50
2023-03-11T14:03:45.806Z,97411.38
2023-03-11T14:05:58.468Z,97410.94
2023-03-11T14:08:13.478Z,97409.88
2023-03-11T14:10:26.304Z,97411.94
2023-03-11T14:12:32.540Z,97415.78
2023-03-11T14:14:49.068Z,97424.66
2023-03-11T14:16:52.483Z,97420.81
2023-03-11T14:19:03.580Z,97421.47
2023-03-11T14:21:08.821Z,97427.63
2023-03-11T14:23:18.970Z,97441.81
2023-03-11T14:25:26.022Z,97424.56
2023-03-11T14:27:30.528Z,97427.47
2023-03-11T14:29:34.735Z,97421.06
2023-03-11T14:31:39.138Z,97420.88
2023-03-11T14:33:42.384Z,97431.75
2023-03-11T14:35:52.993Z,97424.34
2023-03-11T14:37:56.304Z,97423.69
2023-03-11T14:39:59.394Z,97415.22
2023-03-11T14:42:08.870Z,97409.44
2023-03-11T14:44:14.205Z,97399.03
2023-03-11T14:46:21.249Z,97403.91
2023-03-11T14:48:28.126Z,97403.91
2023-03-11T14:50:33.720Z,97406.34
2023-03-11T14:52:41.058Z,97406.97
2023-03-11T14:54:44.807Z,97400.56
2023-03-11T14:56:51.278Z,97399.53
2023-03-11T14:59:07.241Z,97400.78
2023-03-11T15:01:17.067Z,97402.19
2023-03-11T15:03:23.934Z,97408.84
2023-03-11T15:05:31.867Z,97403.31
2023-03-11T15:07:36.587Z,97399.16
2023-03-11T15:09:41.283Z,97399.16
2023-03-11T15:11:48.897Z,97401.75
2023-03-11T15:13:53.593Z,97412.53
2023-03-11T15:15:57.586Z,97415.63
2023-03-11T15:18:02.870Z,97412.19
2023-03-11T15:20:07.902Z,97420.03
2023-03-11T15:22:25.566Z,97429.09
2023-03-11T15:24:30.832Z,97434.41
2023-03-11T15:26:38.200Z,97437.81
2023-03-11T15:28:41.593Z,97441.97
2023-03-11T15:30:44.639Z,97445.50
2023-03-11T15:32:49.606Z,97437.69
2023-03-11T15:35:02.553Z,97436.44
2023-03-11T15:37:19.250Z,97427.63
2023-03-11T15:39:27.950Z,97433.31
2023-03-11T15:41:31.016Z,97435.81
2023-03-11T15:43:35.249Z,97433.53
2023-03-11T15:45:38.322Z,97434.78
2023-03-11T15:47:41.399Z,97441.88
2023-03-11T15:49:45.175Z,97443.31
2023-03-11T15:51:49.610Z,97450.13
2023-03-11T15:53:52.740Z,97443.88
2023-03-11T15:56:03.878Z,97449.09
2023-03-11T15:58:10.709Z,97446.28
2023-03-11T16:00:20.034Z,97453.16
2023-03-11T16:02:24.658Z,97453.34
2023-03-11T16:04:28.320Z,97456.66
2023-03-11T16:06:31.364Z,97454.06
2023-03-11T16:08:35.772Z,97462.06
2023-03-11T16:10:38.899Z,97450.84
2023-03-11T16:12:43.433Z,97448.97
2023-03-11T16:14:47.379Z,97448.06
2023-03-11T16:16:50.484Z,97446.38
2023-03-11T16:18:53.681Z,97436.72
2023-03-11T16:20:57.198Z,97435.16
2023-03-11T16:23:01.593Z,97431.13
2023-03-11T16:25:08.759Z,97439.00
2023-03-11T16:27:15.382Z,97439.94
2023-03-11T16:29:19.841Z,97450.41
2023-03-11T16:31:23.126Z,97450.03
2023-03-11T16:33:26.443Z,97449.63
2023-03-11T16:35:29.634Z,97453.25
2023-03-11T16:37:32.791Z,97450.75
2023-03-11T16:39:36.048Z,97451.78
2023-03-11T16:41:43.682Z,97450.84
2023-03-11T16:43:47.377Z,97455.31
2023-03-11T16:45:51.035Z,97453.84
2023-03-11T16:47:54.101Z,97457.50
2023-03-11T16:49:57.285Z,97456.66
2023-03-11T16:52:00.359Z,97459.56
2023-03-11T16:54:03.477Z,97458.13
2023-03-11T16:56:07.146Z,97457.38
2023-03-11T16:58:11.685Z,97456.66
2023-03-11T17:00:15.440Z,97467.03
2023-03-11T17:02:18.643Z,97473.66
2023-03-11T17:04:21.788Z,97472.84
2023-03-11T17:06:24.834Z,97481.75
2023-03-11T17:08:28.003Z,97486.81
2023-03-11T17:10:31.452Z,97490.56
2023-03-11T17:12:34.563Z,97485.59
2023-03-11T17:14:39.057Z,97490.16
2023-03-11T17:16:42.150Z,97493.78
2023-03-11T17:18:45.329Z,97502.47
2023-03-11T17:20:48.393Z,97503.53
2023-03-11T17:22:51.455Z,97510.66
2023-03-11T17:24:54.719Z,97507.31
2023-03-11T17:26:58.341Z,97510.75
2023-03-11T17:29:01.813Z,97517.69
2023-03-11T17:31:07.253Z,97516.13
2023-03-11T17:33:10.337Z,97511.91
2023-03-11T17:35:13.436Z,97517.69
2023-03-11T17:37:16.601Z,97519.31
2023-03-11T17:39:19.980Z,97520.81
2023-03-11T17:41:23.601Z,97526.75
2023-03-11T17:43:26.835Z,97533.25
2023-03-11T17:45:29.994Z,97531.59
2023-03-11T17:47:36.679Z,97534.38
2023-03-11T17:49:40.197Z,97539.00
2023-03-11T17:51:43.420Z,97536.59
2023-03-11T17:53:48.003Z,97539.38
2023-03-11T17:55:51.110Z,97542.06
2023-03-11T17:57:54.237Z,97533.66
2023-03-11T17:59:59.899Z,97538.06
2023-03-11T18:02:03.232Z,97540.84
2023-03-11T18:04:10.872Z,97547.06
2023-03-11T18:06:15.084Z,97540.31
2023-03-11T18:08:18.292Z,97546.41
2023-03-11T18:10:22.152Z,97547.34
2023-03-11T18:12:25.252Z,97554.53
2023-03-11T18:14:28.377Z,97555.47
2023-03-11T18:16:31.994Z,97557.41
2023-03-11T18:18:35.884Z,97567.09
2023-03-11T18:20:40.939Z,97573.41
2023-03-11T18:22:46.745Z,97571.00
2023-03-11T18:24:50.469Z,97570.31
2023-03-11T18:26:53.544Z,97570.59
2023-03-11T18:28:57.354Z,97564.88
2023-03-11T18:31:06.587Z,97575.41
2023-03-11T18:33:09.866Z,97575.56
2023-03-11T18:35:14.094Z,97579.25
2023-03-11T18:37:18.552Z,97579.25
2023-03-11T18:39:21.676Z,97579.34
2023-03-11T18:41:25.045Z,97575.94
2023-03-11T18:43:28.371Z,97588.13
2023-03-11T18:45:31.620Z,97589.91
2023-03-11T18:47:35.633Z,97586.53
2023-03-11T18:49:39.053Z,97594.31
2023-03-11T18:51:42.184Z,97591.88
2023-03-11T18:53:46.687Z,97597.25
2023-03-11T18:55:49.918Z,97596.56
2023-03-11T18:57:53.261Z,97587.38
2023-03-11T18:59:56.420Z,97586.19
2023-03-11T19:01:59.574Z,97585.59
2023-03-11T19:04:02.737Z,97591.09
2023-03-11T19:06:06.483Z,97578.72
2023-03-11T19:08:09.743Z,97590.97
2023-03-11T19:10:18.216Z,97582.72
2023-03-11T19:12:21.416Z,97583.78
2023-03-11T19:14:24.545Z,97583.88
2023-03-11T19:16:27.828Z,97590.25
2023-03-11T19:18:31.041Z,97591.56
2023-03-11T19:20:34.488Z,97594.41
2023-03-11T19:22:38.128Z,97604.91
2023-03-11T19:24:41.294Z,97605.06
2023-03-11T19:26:46.393Z,97602.72
2023-03-11T19:28:49.673Z,97604.75
2023-03-11T19:30:53.423Z,97598.91
2023-03-11T19:32:56.715Z,97611.06
2023-03-11T19:34:59.852Z,97612.31
2023-03-11T19:37:03.044Z,97612.47
2023-03-11T19:39:06.196Z,97611.72
2023-03-11T19:41:10.562Z,97609.41
2023-03-11T19:43:14.970Z,97614.72
2023-03-11T19:45:18.438Z,97619.19
2023-03-11T19:47:21.620Z,97617.72
2023-03-11T19:49:25.210Z,97617.19
2023-03-11T19:51:35.730Z,97613.34
2023-03-11T19:53:47.025Z,97612.06
2023-03-11T19:55:52.186Z,97616.47
2023-03-11T19:57:55.789Z,97610.97
2023-03-11T20:00:00.243Z,97620.59
2023-03-11T20:02:04.394Z,97623.25
2023-03-11T20:04:08.296Z,97618.31
2023-03-11T20:06:13.521Z,97621.13
2023-03-11T20:08:20.001Z,97622.88
2023-03-11T20:10:23.169Z,97623.63
2023-03-11T20:12:26.355Z,97627.22
2023-03-11T20:14:29.501Z,97635.94
2023-03-11T20:16:34.100Z,97642.28
2023-03-11T20:18:37.289Z,97642.28
2023-03-11T20:20:43.209Z,97646.69
2023-03-11T20:22:46.394Z,97646.19
2023-03-11T20:24:49.593Z,97647.22
2023-03-11T20:26:52.900Z,97652.69
2023-03-11T20:28:56.632Z,97645.09
2023-03-11T20:30:59.763Z,97652.09
2023-03-11T20:33:04.260Z,97654.88
2023-03-11T20:35:08.445Z,97654.28
2023-03-11T20:37:11.949Z,97658.66
2023-03-11T20:39:15.098Z,97646.78
2023-03-11T20:41:18.409Z,97654.66
2023-03-11T20:43:21.531Z,97655.84
2023-03-11T20:45:24.784Z,97663.84
2023-03-11T20:47:27.971Z,97658.78
2023-03-11T20:49:32.767Z,97664.00
2023-03-11T20:51:36.233Z,97669.22
2023-03-11T20:53:39.613Z,97666.88
2023-03-11T20:55:42.811Z,97665.38
2023-03-11T20:57:46.594Z,97660.41
2023-03-11T20:59:49.769Z,97664.03
2023-03-11T21:01:52.886Z,97670.94
2023-03-11T21:03:57.066Z,97677.00
2023-03-11T21:06:01.609Z,97674.56
2023-03-11T21:08:04.854Z,97678.03
2023-03-11T21:10:10.607Z,97679.03
2023-03-11T21:12:13.756Z,97678.41
2023-03-11T21:14:17.398Z,97681.94
2023-03-11T21:16:20.686Z,97685.41
2023-03-11T21:18:23.937Z,97681.19
2023-03-11T21:20:27.147Z,97676.94
2023-03-11T21:22:31.686Z,97683.03
2023-03-11T21:24:34.776Z,97685.63
2023-03-11T21:26:38.528Z,97692.66
2023-03-11T21:28:43.905Z,97688.47
2023-03-11T21:30:47.037Z,97687.78
2023-03-11T21:32:50.298Z,97686.09
2023-03-11T21:34:57.434Z,97683.59
2023-03-11T21:37:00.692Z,97691.31
2023-03-11T21:39:05.718Z,97692.53
2023-03-11T21:41:10.449Z,97691.78
2023-03-11T21:43:13.728Z,97688.41
2023-03-11T21:45:17.961Z,97691.09
2023-03-11T21:47:21.066Z,97690.34
2023-03-11T21:49:24.659Z,97698.28
2023-03-11T21:51:28.167Z,97695.06
2023-03-11T21:53:31.981Z,97691.72
2023-03-11T21:55:36.511Z,97687.34
2023-03-11T21:57:39.633Z,97687.34
2023-03-11T21:59:42.780Z,97686.50
2023-03-11T22:01:45.899Z,97684.13
2023-03-11T22:03:49.161Z,97683.44
2023-03-11T22:05:57.704Z,97687.75
2023-03-11T22:08:00.859Z,97681.81
2023-03-11T22:10:04.313Z,97685.38
2023-03-11T22:12:09.245Z,97675.16
2023-03-11T22:14:12.465Z,97676.03
2023-03-11T22:16:16.211Z,97683.00
2023-03-11T22:18:19.532Z,97689.09
2023-03-11T22:20:22.813Z,97680.69
2023-03-11T22:22:26.155Z,97687.75
2023-03-11T22:24:29.319Z,97689.69
2023-03-11T22:26:32.400Z,97693.25
2023-03-11T22:28:36.889Z,97697.53
2023-03-11T22:30:40.059Z,97694.09
2023-03-11T22:32:43.379Z,97699.47
2023-03-11T22:34:46.523Z,97695.41
2023-03-11T22:36:49.549Z,97695.53
2023-03-11T22:38:53.197Z,97693.84
2023-03-11T22:40:56.349Z,97701.63
2023-03-11T22:42:59.606Z,97694.78
2023-03-11T22:45:04.258Z,97689.72
2023-03-11T22:47:07.782Z,97682.94
2023-03-11T22:49:10.905Z,97689.78
2023-03-11T22:51:15.728Z,97690.66
2023-03-11T22:53:21.475Z,97689.06
2023-03-11T22:55:24.655Z,97693.41
2023-03-11T22:57:27.724Z,97690.09
2023-03-11T22:59:31.009Z,97686.88
2023-03-11T23:01:35.914Z,97688.66
2023-03-11T23:03:39.378Z,97695.72
2023-03-11T23:05:43.295Z,97690.72
2023-03-11T23:07:46.443Z,97688.34
2023-03-11T23:09:49.499Z,97705.56
2023-03-11T23:11:53.437Z,97703.88
2023-03-11T23:13:57.335Z,97701.31
2023-03-11T23:16:05.488Z,97704.00
2023-03-11T23:18:10.136Z,97700.59
2023-03-11T23:20:15.819Z,97710.94
2023-03-11T23:22:19.016Z,97717.03
2023-03-11T23:24:23.680Z,97712.75
2023-03-11T23:26:26.894Z,97711.88
2023-03-11T23:28:30.093Z,97718.78
2023-03-11T23:30:33.251Z,97710.38
2023-03-11T23:32:36.411Z,97710.38
2023-03-11T23:34:40.880Z,97712.00
2023-03-11T23:36:43.964Z,97707.78
2023-03-11T23:38:48.075Z,97709.50
2023-03-11T23:40:51.208Z,97706.94
2023-03-11T23:42:54.273Z,97702.84
2023-03-11T23:44:57.526Z,97707.13
2023-03-11T23:47:00.594Z,97705.53
2023-03-11T23:49:03.623Z,97709.03
2023-03-11T23:51:08.330Z,97701.34
2023-03-11T23:53:11.511Z,97703.91
2023-03-11T23:55:14.539Z,97706.41
2023-03-11T23:57:17.906Z,97705.72
2023-03-11T23:59:20.963Z,97701.47
